createdAt,value
2022-10-05T00:01:28.393Z,3.88
2022-10-05T00:04:01.082Z,4.40
2022-10-05T00:06:31.018Z,4.68
2022-10-05T00:09:01.958Z,4.10
2022-10-05T00:11:30.157Z,3.90
2022-10-05T00:13:59.181Z,4.20
2022-10-05T00:16:27.365Z,3.80
2022-10-05T00:18:55.591Z,3.70
2022-10-05T00:21:26.082Z,3.83
2022-10-05T00:23:57.579Z,4.18
2022-10-05T00:26:28.525Z,4.20
2022-10-05T00:28:56.771Z,3.92
2022-10-05T00:31:27.472Z,3.40
2022-10-05T00:33:57.587Z,4.00
2022-10-05T00:36:26.258Z,4.50
2022-10-05T00:38:55.209Z,3.95
2022-10-05T00:41:32.325Z,4.32
2022-10-05T00:44:16.695Z,4.07
2022-10-05T00:46:55.495Z,3.70
2022-10-05T00:49:38.562Z,3.92
2022-10-05T00:52:20.247Z,3.97
2022-10-05T00:54:59.349Z,3.83
2022-10-05T00:57:40.209Z,4.25
2022-10-05T01:00:12.415Z,4.10
2022-10-05T01:02:53.453Z,4.20
2022-10-05T01:05:40.186Z,3.65
2022-10-05T01:08:20.277Z,3.80
2022-10-05T01:10:59.653Z,3.90
2022-10-05T01:13:38.384Z,3.97
2022-10-05T01:16:11.054Z,3.60
2022-10-05T01:18:45.476Z,4.10
2022-10-05T01:21:20.640Z,3.80
2022-10-05T01:24:25.954Z,4.00
2022-10-05T01:27:18.141Z,4.25
2022-10-05T01:29:54.619Z,4.20
2022-10-05T01:32:29.052Z,4.28
2022-10-05T01:35:05.309Z,3.45
2022-10-05T01:37:43.400Z,3.58
2022-10-05T01:40:20.044Z,3.78
2022-10-05T01:42:59.256Z,3.90
2022-10-05T01:45:40.768Z,4.00
2022-10-05T01:48:12.840Z,4.10
2022-10-05T01:50:52.146Z,4.70
2022-10-05T01:53:34.779Z,4.10
2022-10-05T01:56:10.944Z,4.30
2022-10-05T01:58:45.583Z,4.00
2022-10-05T02:01:20.867Z,4.38
2022-10-05T02:03:54.498Z,4.10
2022-10-05T02:06:27.451Z,4.20
2022-10-05T02:09:02.129Z,4.80
2022-10-05T02:11:30.937Z,4.65
2022-10-05T02:14:03.460Z,4.30
2022-10-05T02:16:37.580Z,3.97
2022-10-05T02:19:14.633Z,4.25
2022-10-05T02:21:48.169Z,3.92
2022-10-05T02:24:22.566Z,4.20
2022-10-05T02:26:53.363Z,4.40
2022-10-05T02:29:24.332Z,4.68
2022-10-05T02:31:58.847Z,4.18
2022-10-05T02:34:29.650Z,4.20
2022-10-05T02:37:17.968Z,4.05
2022-10-05T02:40:03.548Z,4.50
2022-10-05T02:42:38.271Z,4.20
2022-10-05T02:45:16.810Z,4.70
2022-10-05T02:47:56.790Z,4.20
2022-10-05T02:50:32.502Z,4.20
2022-10-05T02:53:18.120Z,4.57
2022-10-05T02:55:56.227Z,4.93
2022-10-05T02:58:26.766Z,4.35
2022-10-05T03:01:04.255Z,4.07
2022-10-05T03:03:39.102Z,4.30
2022-10-05T03:06:16.950Z,4.47
2022-10-05T03:08:48.177Z,4.93
2022-10-05T03:11:25.250Z,4.47
2022-10-05T03:14:02.802Z,4.50
2022-10-05T03:16:44.145Z,4.18
2022-10-05T03:19:32.442Z,4.90
2022-10-05T03:22:07.317Z,4.32
2022-10-05T03:24:55.080Z,4.15
2022-10-05T03:27:34.688Z,4.50
2022-10-05T03:30:06.513Z,4.18
2022-10-05T03:32:51.252Z,4.85
2022-10-05T03:35:29.219Z,4.45
2022-10-05T03:38:07.854Z,5.13
2022-10-05T03:40:40.158Z,4.30
2022-10-05T03:43:33.270Z,4.20
2022-10-05T03:46:09.173Z,4.40
2022-10-05T03:48:51.048Z,4.68
2022-10-05T03:51:28.674Z,4.30
2022-10-05T03:54:01.426Z,4.60
2022-10-05T03:56:34.640Z,4.40
2022-10-05T03:59:11.146Z,4.57
2022-10-05T04:01:46.709Z,4.67
2022-10-05T04:04:21.665Z,4.63
2022-10-05T04:06:54.520Z,4.50
2022-10-05T04:09:28.091Z,4.90
2022-10-05T04:12:13.801Z,4.50
2022-10-05T04:14:46.958Z,4.30
2022-10-05T04:17:18.694Z,4.40
2022-10-05T04:19:57.491Z,4.65
2022-10-05T04:22:33.029Z,4.57
2022-10-05T04:25:07.750Z,4.57
2022-10-05T04:27:45.119Z,4.40
2022-10-05T04:30:15.770Z,4.22
2022-10-05T04:32:46.243Z,4.60
2022-10-05T04:35:51.598Z,4.95
2022-10-05T04:38:45.837Z,4.70
2022-10-05T04:41:40.311Z,4.00
2022-10-05T04:44:25.630Z,4.30
2022-10-05T04:47:06.551Z,3.95
2022-10-05T04:50:01.901Z,5.10
2022-10-05T04:52:39.239Z,5.10
2022-10-05T04:55:21.902Z,4.00
2022-10-05T04:57:54.050Z,4.90
2022-10-05T05:00:28.285Z,4.20
2022-10-05T05:03:39.106Z,4.47
2022-10-05T05:06:22.652Z,4.30
2022-10-05T05:09:23.242Z,5.15
2022-10-05T05:12:05.339Z,4.23
2022-10-05T05:14:47.768Z,4.23
2022-10-05T05:17:29.354Z,4.85
2022-10-05T05:20:06.635Z,4.30
2022-10-05T05:22:41.852Z,4.97
2022-10-05T05:25:26.090Z,4.38
2022-10-05T05:28:02.286Z,4.70
2022-10-05T05:30:39.982Z,4.60
2022-10-05T05:33:17.984Z,5.07
2022-10-05T05:36:12.193Z,4.60
2022-10-05T05:38:48.252Z,5.18
2022-10-05T05:41:24.925Z,4.90
2022-10-05T05:44:04.764Z,4.30
2022-10-05T05:47:02.441Z,4.25
2022-10-05T05:49:36.327Z,3.88
2022-10-05T05:52:13.733Z,4.60
2022-10-05T05:54:45.028Z,4.80
2022-10-05T05:57:16.897Z,4.65
2022-10-05T05:59:59.100Z,4.78
2022-10-05T06:02:32.867Z,4.80
2022-10-05T06:05:10.486Z,4.80
2022-10-05T06:07:39.617Z,4.20
2022-10-05T06:10:20.362Z,4.20
2022-10-05T06:13:05.058Z,4.00
2022-10-05T06:15:39.525Z,4.50
2022-10-05T06:18:12.965Z,4.57
2022-10-05T06:20:45.643Z,4.40
2022-10-05T06:23:19.457Z,4.17
2022-10-05T06:26:05.996Z,4.30
2022-10-05T06:28:38.273Z,3.78
2022-10-05T06:31:21.769Z,3.95
2022-10-05T06:34:00.254Z,3.78
2022-10-05T06:36:44.703Z,4.03
2022-10-05T06:39:38.911Z,4.20
2022-10-05T06:42:26.329Z,4.00
2022-10-05T06:45:18.481Z,3.83
2022-10-05T06:48:04.923Z,3.63
2022-10-05T06:51:07.357Z,3.60
2022-10-05T06:53:52.914Z,3.60
2022-10-05T06:56:28.101Z,3.90
2022-10-05T06:59:04.506Z,4.25
2022-10-05T07:01:46.028Z,3.97
2022-10-05T07:04:42.409Z,3.17
2022-10-05T07:07:19.959Z,3.30
2022-10-05T07:10:00.538Z,3.80
2022-10-05T07:12:44.719Z,3.40
2022-10-05T07:15:33.057Z,3.50
2022-10-05T07:18:13.778Z,3.20
2022-10-05T07:20:52.042Z,3.72
2022-10-05T07:23:30.604Z,3.33
2022-10-05T07:26:06.723Z,2.70
2022-10-05T07:28:48.372Z,3.00
2022-10-05T07:31:28.353Z,3.17
2022-10-05T07:34:06.536Z,3.03
2022-10-05T07:37:01.497Z,3.40
2022-10-05T07:39:59.152Z,3.20
2022-10-05T07:42:48.818Z,3.00
2022-10-05T07:45:30.177Z,3.08
2022-10-05T07:48:07.469Z,3.10
2022-10-05T07:50:41.301Z,3.10
2022-10-05T07:53:19.797Z,2.90
2022-10-05T07:55:52.709Z,3.00
2022-10-05T07:58:27.575Z,3.10
2022-10-05T08:01:13.037Z,3.33
2022-10-05T08:03:53.709Z,3.35
2022-10-05T08:06:44.903Z,2.70
2022-10-05T08:09:27.570Z,3.00
2022-10-05T08:12:05.585Z,2.70
2022-10-05T08:14:43.526Z,2.80
2022-10-05T08:17:25.470Z,2.63
2022-10-05T08:20:02.208Z,2.40
2022-10-05T08:22:35.909Z,2.45
2022-10-05T08:25:10.869Z,2.47
2022-10-05T08:27:48.533Z,2.50
2022-10-05T08:30:18.224Z,2.47
2022-10-05T08:32:53.192Z,2.40
2022-10-05T08:35:29.837Z,2.30
2022-10-05T08:37:59.054Z,2.10
2022-10-05T08:41:04.085Z,2.70
2022-10-05T08:44:04.737Z,2.90
2022-10-05T08:47:05.442Z,2.80
2022-10-05T08:49:58.181Z,2.50
2022-10-05T08:52:28.922Z,2.30
2022-10-05T08:55:35.781Z,2.60
2022-10-05T08:58:48.259Z,2.67
2022-10-05T09:01:24.069Z,2.45
2022-10-05T09:04:18.238Z,2.40
2022-10-05T09:07:19.137Z,2.30
2022-10-05T09:10:23.907Z,2.50
2022-10-05T09:13:27.395Z,2.40
2022-10-05T09:16:18.153Z,2.40
2022-10-05T09:19:09.912Z,2.53
2022-10-05T09:21:42.915Z,3.00
2022-10-05T09:24:43.899Z,2.58
2022-10-05T09:27:17.828Z,2.30
2022-10-05T09:30:18.395Z,2.20
2022-10-05T09:33:14.558Z,2.40
2022-10-05T09:36:25.983Z,2.28
2022-10-05T09:39:21.095Z,2.25
2022-10-05T09:42:22.973Z,2.33
2022-10-05T09:45:28.634Z,2.08
2022-10-05T09:48:39.331Z,2.00
2022-10-05T09:51:43.315Z,2.13
2022-10-05T09:55:01.702Z,2.30
2022-10-05T09:58:07.417Z,1.67
2022-10-05T10:01:03.806Z,2.08
2022-10-05T10:04:15.338Z,2.20
2022-10-05T10:07:19.106Z,1.80
2022-10-05T10:10:05.746Z,1.80
2022-10-05T10:12:42.476Z,1.80
2022-10-05T10:16:01.007Z,1.90
2022-10-05T10:18:47.658Z,2.00
2022-10-05T10:21:43.402Z,1.83
2022-10-05T10:24:25.444Z,1.90
2022-10-05T10:27:05.627Z,2.10
2022-10-05T10:30:00.525Z,2.00
2022-10-05T10:33:11.675Z,1.80
2022-10-05T10:35:44.714Z,1.80
2022-10-05T10:38:40.052Z,2.00
2022-10-05T10:41:48.509Z,2.00
2022-10-05T10:44:44.372Z,1.80
2022-10-05T10:47:37.026Z,1.67
2022-10-05T10:50:29.167Z,1.90
2022-10-05T10:53:09.913Z,1.98
2022-10-05T10:55:51.763Z,1.90
2022-10-05T10:59:05.518Z,1.85
2022-10-05T11:01:38.359Z,1.60
2022-10-05T11:04:23.089Z,1.50
2022-10-05T11:07:13.915Z,1.60
2022-10-05T11:09:58.441Z,2.15
2022-10-05T11:13:03.700Z,1.60
2022-10-05T11:15:57.840Z,1.73
2022-10-05T11:18:40.758Z,1.48
2022-10-05T11:21:30.313Z,1.90
2022-10-05T11:24:32.656Z,1.60
2022-10-05T11:27:30.818Z,1.52
2022-10-05T11:30:20.911Z,1.90
2022-10-05T11:33:27.856Z,1.50
2022-10-05T11:36:34.225Z,1.50
2022-10-05T11:39:40.910Z,1.40
2022-10-05T11:42:46.284Z,1.40
2022-10-05T11:45:23.292Z,1.42
2022-10-05T11:48:25.560Z,2.22
2022-10-05T11:51:28.617Z,1.33
2022-10-05T11:54:17.513Z,1.50
2022-10-05T11:56:54.674Z,1.50
2022-10-05T11:59:31.196Z,1.40
2022-10-05T12:02:18.836Z,1.50
2022-10-05T12:04:53.105Z,1.60
2022-10-05T12:07:30.618Z,1.10
2022-10-05T12:10:17.290Z,1.80
2022-10-05T12:13:05.963Z,1.60
2022-10-05T12:15:44.722Z,1.30
2022-10-05T12:18:17.909Z,1.60
2022-10-05T12:20:50.033Z,1.60
2022-10-05T12:23:23.338Z,2.00
2022-10-05T12:25:58.550Z,1.30
2022-10-05T12:28:34.770Z,2.20
2022-10-05T12:31:21.807Z,1.60
2022-10-05T12:33:58.440Z,1.80
2022-10-05T12:36:52.564Z,1.50
2022-10-05T12:39:32.271Z,1.50
2022-10-05T12:42:16.815Z,1.67
2022-10-05T12:45:16.987Z,1.90
2022-10-05T12:48:05.049Z,1.50
2022-10-05T12:50:36.719Z,1.33
2022-10-05T12:53:29.752Z,1.33
2022-10-05T12:56:05.763Z,1.63
2022-10-05T12:58:47.821Z,1.60
2022-10-05T13:01:27.582Z,1.40
2022-10-05T13:04:05.537Z,1.50
2022-10-05T13:06:39.678Z,1.55
2022-10-05T13:09:12.439Z,1.30
2022-10-05T13:11:47.271Z,1.60
2022-10-05T13:14:24.613Z,1.70
2022-10-05T13:16:59.400Z,1.50
2022-10-05T13:19:36.527Z,10.45
2022-10-05T13:22:26.983Z,9.60
2022-10-05T13:25:08.497Z,3.97
2022-10-05T13:27:41.841Z,3.97
2022-10-05T13:30:17.408Z,2.42
2022-10-05T13:32:48.235Z,2.33
2022-10-05T13:35:28.791Z,2.45
2022-10-05T13:38:08.826Z,17.60
2022-10-05T13:40:44.905Z,4.95
2022-10-05T13:43:24.005Z,4.17
2022-10-05T13:45:57.156Z,5.43
2022-10-05T13:48:48.188Z,10.63
2022-10-05T13:51:20.656Z,1.90
2022-10-05T13:53:56.047Z,1.58
2022-10-05T13:56:31.035Z,1.60
2022-10-05T13:59:11.950Z,1.40
2022-10-05T14:01:45.023Z,1.42
2022-10-05T14:04:19.836Z,1.10
2022-10-05T14:06:48.507Z,1.10
2022-10-05T14:09:30.029Z,1.30
2022-10-05T14:12:15.155Z,1.30
2022-10-05T14:14:50.358Z,1.35
2022-10-05T14:17:40.797Z,1.10
2022-10-05T14:20:31.056Z,1.40
2022-10-05T14:23:02.132Z,1.13
2022-10-05T14:25:31.850Z,1.30
2022-10-05T14:28:03.680Z,1.40
2022-10-05T14:30:33.559Z,1.48
2022-10-05T14:33:16.403Z,1.70
2022-10-05T14:35:50.202Z,1.13
2022-10-05T14:38:21.918Z,1.40
2022-10-05T14:41:17.639Z,1.30
2022-10-05T14:43:56.046Z,1.70
2022-10-05T14:46:28.996Z,1.27
2022-10-05T14:49:15.713Z,1.40
2022-10-05T14:51:44.102Z,1.20
2022-10-05T14:54:27.609Z,1.10
2022-10-05T14:57:18.387Z,1.30
2022-10-05T15:00:03.987Z,1.30
2022-10-05T15:03:06.077Z,1.40
2022-10-05T15:05:42.365Z,1.23
2022-10-05T15:08:26.059Z,1.30
2022-10-05T15:11:01.380Z,1.00
2022-10-05T15:13:32.644Z,1.10
2022-10-05T15:16:06.662Z,1.58
2022-10-05T15:18:44.197Z,1.20
2022-10-05T15:21:31.493Z,1.27
2022-10-05T15:24:04.238Z,1.27
2022-10-05T15:26:46.878Z,2.00
2022-10-05T15:29:36.116Z,1.37
2022-10-05T15:32:14.791Z,1.50
2022-10-05T15:34:55.573Z,1.33
2022-10-05T15:37:33.084Z,1.30
2022-10-05T15:40:05.714Z,1.30
2022-10-05T15:42:38.266Z,1.60
2022-10-05T15:45:19.933Z,1.80
2022-10-05T15:47:53.943Z,1.10
2022-10-05T15:50:26.959Z,1.50
2022-10-05T15:53:02.764Z,1.23
2022-10-05T15:55:43.536Z,1.40
2022-10-05T15:58:50.452Z,1.60
2022-10-05T16:01:22.201Z,1.70
2022-10-05T16:03:55.145Z,1.60
2022-10-05T16:06:59.742Z,1.30
2022-10-05T16:09:52.144Z,1.23
2022-10-05T16:12:36.568Z,1.55
2022-10-05T16:15:18.799Z,1.45
2022-10-05T16:18:15.190Z,1.60
2022-10-05T16:20:51.115Z,1.50
2022-10-05T16:23:29.815Z,1.60
2022-10-05T16:26:13.298Z,1.80
2022-10-05T16:28:56.055Z,1.67
2022-10-05T16:31:34.522Z,1.75
2022-10-05T16:34:17.171Z,2.20
2022-10-05T16:36:57.786Z,2.10
2022-10-05T16:39:52.147Z,1.83
2022-10-05T16:42:43.392Z,1.77
2022-10-05T16:45:28.271Z,1.88
2022-10-05T16:48:04.311Z,1.87
2022-10-05T16:50:43.089Z,1.80
2022-10-05T16:53:17.620Z,1.80
2022-10-05T16:55:49.307Z,4.78
2022-10-05T16:58:25.478Z,7.43
2022-10-05T17:01:06.832Z,2.17
2022-10-05T17:03:48.472Z,2.20
2022-10-05T17:06:41.616Z,2.70
2022-10-05T17:09:25.921Z,2.83
2022-10-05T17:12:13.337Z,2.55
2022-10-05T17:14:59.315Z,2.30
2022-10-05T17:17:53.038Z,2.22
2022-10-05T17:20:42.433Z,2.65
2022-10-05T17:23:32.236Z,2.70
2022-10-05T17:26:17.195Z,3.20
2022-10-05T17:29:01.104Z,3.00
2022-10-05T17:31:32.340Z,2.00
2022-10-05T17:34:29.381Z,1.80
2022-10-05T17:36:59.817Z,1.80
2022-10-05T17:39:50.066Z,1.63
2022-10-05T17:42:47.305Z,1.80
2022-10-05T17:45:52.733Z,1.95
2022-10-05T17:49:06.680Z,1.60
2022-10-05T17:52:15.692Z,1.88
2022-10-05T17:55:30.078Z,2.00
2022-10-05T17:58:00.457Z,2.00
2022-10-05T18:00:56.529Z,2.50
2022-10-05T18:03:40.816Z,2.10
2022-10-05T18:06:48.118Z,2.10
2022-10-05T18:09:50.708Z,2.10
2022-10-05T18:12:40.362Z,2.08
2022-10-05T18:15:46.077Z,1.90
2022-10-05T18:18:56.485Z,2.28
2022-10-05T18:21:34.302Z,1.65
2022-10-05T18:24:21.898Z,2.00
2022-10-05T18:26:59.634Z,1.90
2022-10-05T18:30:06.310Z,1.80
2022-10-05T18:32:45.377Z,1.70
2022-10-05T18:35:17.229Z,2.00
2022-10-05T18:37:57.304Z,2.05
2022-10-05T18:40:40.069Z,1.80
2022-10-05T18:43:23.255Z,1.75
2022-10-05T18:46:05.048Z,1.57
2022-10-05T18:48:40.618Z,1.52
2022-10-05T18:51:20.173Z,1.40
2022-10-05T18:54:08.488Z,1.50
2022-10-05T18:56:44.509Z,1.70
2022-10-05T18:59:28.370Z,1.70
2022-10-05T19:02:08.390Z,1.33
2022-10-05T19:04:49.165Z,1.80
2022-10-05T19:07:27.434Z,1.63
2022-10-05T19:10:05.922Z,1.70
2022-10-05T19:12:49.094Z,1.90
2022-10-05T19:15:25.203Z,1.40
2022-10-05T19:18:19.616Z,1.50
2022-10-05T19:20:57.199Z,1.88
2022-10-05T19:23:52.623Z,1.40
2022-10-05T19:26:39.015Z,1.60
2022-10-05T19:29:24.235Z,17.17
2022-10-05T19:31:56.189Z,23.83
2022-10-05T19:34:39.717Z,55.40
2022-10-05T19:37:15.080Z,28.08
2022-10-05T19:39:51.213Z,16.27
2022-10-05T19:42:38.485Z,12.30
2022-10-05T19:45:19.377Z,26.38
2022-10-05T19:47:56.005Z,10.85
2022-10-05T19:50:30.273Z,5.72
2022-10-05T19:53:08.134Z,6.00
2022-10-05T19:55:39.538Z,1.95
2022-10-05T19:58:19.548Z,2.60
2022-10-05T20:00:58.560Z,2.28
2022-10-05T20:03:29.207Z,2.50
2022-10-05T20:05:59.563Z,3.33
2022-10-05T20:08:32.047Z,1.10
2022-10-05T20:11:12.320Z,1.30
2022-10-05T20:13:42.083Z,1.20
2022-10-05T20:16:45.837Z,1.40
2022-10-05T20:19:49.591Z,1.60
2022-10-05T20:22:34.364Z,1.50
2022-10-05T20:25:05.684Z,1.37
2022-10-05T20:27:47.249Z,1.38
2022-10-05T20:30:17.971Z,1.40
2022-10-05T20:32:50.200Z,1.50
2022-10-05T20:35:18.822Z,1.50
2022-10-05T20:37:46.933Z,1.85
2022-10-05T20:40:17.641Z,1.50
2022-10-05T20:42:45.807Z,1.20
2022-10-05T20:45:15.115Z,1.35
2022-10-05T20:47:43.181Z,1.40
2022-10-05T20:50:12.709Z,1.60
2022-10-05T20:52:40.984Z,1.63
2022-10-05T20:55:12.198Z,1.60
2022-10-05T20:57:42.230Z,1.30
2022-10-05T21:00:12.699Z,1.50
2022-10-05T21:02:41.090Z,1.50
2022-10-05T21:05:10.169Z,1.50
2022-10-05T21:07:40.967Z,1.55
2022-10-05T21:10:09.892Z,1.60
2022-10-05T21:12:38.069Z,1.47
2022-10-05T21:15:07.277Z,1.35
2022-10-05T21:17:39.995Z,1.50
2022-10-05T21:20:11.572Z,1.30
2022-10-05T21:22:41.468Z,1.60
2022-10-05T21:25:10.181Z,1.50
2022-10-05T21:27:38.310Z,1.30
2022-10-05T21:30:07.297Z,1.88
2022-10-05T21:32:36.874Z,1.27
2022-10-05T21:35:07.205Z,1.47
2022-10-05T21:37:35.338Z,1.30
2022-10-05T21:40:05.440Z,1.00
2022-10-05T21:42:33.671Z,1.30
2022-10-05T21:45:01.831Z,1.40
2022-10-05T21:47:30.249Z,1.40
2022-10-05T21:49:59.877Z,1.50
2022-10-05T21:52:27.986Z,1.40
2022-10-05T21:54:56.743Z,1.40
2022-10-05T21:57:26.238Z,1.60
2022-10-05T21:59:54.636Z,1.40
2022-10-05T22:02:22.778Z,1.45
2022-10-05T22:04:50.893Z,1.02
2022-10-05T22:07:20.584Z,1.40
2022-10-05T22:09:49.305Z,1.33
2022-10-05T22:12:18.514Z,2.00
2022-10-05T22:14:48.088Z,1.40
2022-10-05T22:17:19.609Z,1.90
2022-10-05T22:19:47.785Z,1.42
2022-10-05T22:22:15.925Z,1.40
2022-10-05T22:24:44.142Z,1.88
2022-10-05T22:27:12.366Z,1.70
2022-10-05T22:29:41.100Z,1.90
2022-10-05T22:32:10.596Z,1.60
2022-10-05T22:34:38.738Z,1.80
2022-10-05T22:37:07.878Z,1.60
2022-10-05T22:39:37.752Z,1.42
2022-10-05T22:42:06.575Z,1.50
2022-10-05T22:44:34.869Z,1.30
2022-10-05T22:47:04.282Z,1.33
2022-10-05T22:49:33.775Z,1.13
2022-10-05T22:52:01.879Z,1.20
2022-10-05T22:54:32.480Z,1.10
2022-10-05T22:57:05.508Z,1.10
2022-10-05T22:59:33.812Z,0.90
2022-10-05T23:02:03.072Z,1.10
2022-10-05T23:04:37.637Z,1.20
2022-10-05T23:07:08.170Z,1.00
2022-10-05T23:09:36.266Z,1.20
2022-10-05T23:12:04.448Z,1.13
2022-10-05T23:14:33.457Z,1.33
2022-10-05T23:17:04.526Z,1.20
2022-10-05T23:19:32.714Z,1.00
2022-10-05T23:22:00.753Z,1.10
2022-10-05T23:24:31.612Z,1.40
2022-10-05T23:26:59.743Z,1.30
2022-10-05T23:29:28.719Z,1.23
2022-10-05T23:31:56.814Z,1.10
2022-10-05T23:34:25.746Z,1.52
2022-10-05T23:36:53.894Z,1.50
2022-10-05T23:39:21.970Z,2.63
2022-10-05T23:41:51.535Z,1.70
2022-10-05T23:44:20.539Z,1.00
2022-10-05T23:46:48.563Z,0.70
2022-10-05T23:49:16.659Z,0.80
2022-10-05T23:51:44.911Z,0.70
2022-10-05T23:54:13.013Z,0.60
2022-10-05T23:56:41.079Z,0.70
2022-10-05T23:59:10.637Z,0.70
